Time;durP1;ratioP1;P1;durP2;ratioP2;P2;SDS_P1;SDS_P2;PMS_P1;PMS_P2;Temp;Humidity;BMP_temperature;BMP_pressure;BME280_temperature;BME280_humidity;BME280_pressure;Samples;Min_cycle;Max_cycle;Signal;HPM_P1;HPM_P2
2023/09/01 00:00:34;;;;;;;6.25;4.45;;;;;;;;;;4993741;28;20058;-84
2023/09/01 00:03:21;;;;;;;5.53;4.10;;;;;;;;;;4993014;28;20050;-84
2023/09/01 00:05:52;;;;;;;6.32;4.55;;;;;;;;;;4984529;28;20057;-83
2023/09/01 00:08:19;;;;;;;4.72;3.97;;;;;;;;;;4994076;28;20049;-83
2023/09/01 00:10:46;;;;;;;4.20;3.45;;;;;;;;;;4992510;28;20408;-83
2023/09/01 00:13:13;;;;;;;5.85;4.68;;;;;;;;;;4992606;28;20047;-83
2023/09/01 00:15:43;;;;;;;4.85;3.47;;;;;;;;;;4992518;28;20057;-83
2023/09/01 00:18:11;;;;;;;11.02;4.30;;;;;;;;;;4976520;28;20491;-83
2023/09/01 00:20:38;;;;;;;5.20;3.08;;;;;;;;;;4976322;28;20061;-83
2023/09/01 00:23:07;;;;;;;5.25;3.90;;;;;;;;;;4992289;28;20042;-83
2023/09/01 00:25:36;;;;;;;5.07;4.18;;;;;;;;;;4972810;28;20077;-84
2023/09/01 00:28:04;;;;;;;5.00;3.42;;;;;;;;;;4990931;28;20737;-83
2023/09/01 00:30:33;;;;;;;5.78;3.65;;;;;;;;;;4991859;28;20038;-84
2023/09/01 00:33:01;;;;;;;7.60;3.53;;;;;;;;;;4978109;28;20050;-83
2023/09/01 00:35:30;;;;;;;4.18;3.38;;;;;;;;;;4981425;28;20057;-84
2023/09/01 00:38:00;;;;;;;7.22;4.25;;;;;;;;;;4994172;28;20058;-84
2023/09/01 00:40:31;;;;;;;8.10;4.57;;;;;;;;;;4981345;28;20049;-84
2023/09/01 00:43:00;;;;;;;9.32;3.92;;;;;;;;;;4983698;28;20053;-84
2023/09/01 00:45:28;;;;;;;4.90;4.40;;;;;;;;;;4975767;28;20058;-84
2023/09/01 00:47:56;;;;;;;6.63;3.65;;;;;;;;;;4991784;28;20073;-84
2023/09/01 00:50:25;;;;;;;4.53;4.07;;;;;;;;;;4991547;28;20503;-84
2023/09/01 00:52:52;;;;;;;5.15;3.83;;;;;;;;;;4991818;28;20420;-83
2023/09/01 00:55:20;;;;;;;4.13;3.72;;;;;;;;;;4975575;28;20049;-83
2023/09/01 00:57:51;;;;;;;4.78;3.53;;;;;;;;;;4976009;28;20057;-83
2023/09/01 01:00:21;;;;;;;5.72;3.22;;;;;;;;;;4999555;28;20054;-83
2023/09/01 01:02:49;;;;;;;5.65;3.85;;;;;;;;;;4991526;28;20050;-83
2023/09/01 01:05:23;;;;;;;3.85;3.00;;;;;;;;;;4991707;28;20416;-83
2023/09/01 01:07:59;;;;;;;3.58;2.75;;;;;;;;;;4983692;28;20057;-83
2023/09/01 01:10:35;;;;;;;6.90;3.78;;;;;;;;;;4991454;28;20046;-83
2023/09/01 01:13:09;;;;;;;4.13;3.70;;;;;;;;;;4992670;28;20042;-83
2023/09/01 01:15:42;;;;;;;4.63;3.55;;;;;;;;;;4991315;28;20073;-83
2023/09/01 01:18:12;;;;;;;4.20;3.13;;;;;;;;;;4975181;28;20516;-83
2023/09/01 01:20:46;;;;;;;3.38;2.83;;;;;;;;;;4991329;28;20057;-83
2023/09/01 01:23:16;;;;;;;5.80;4.10;;;;;;;;;;4978347;28;20046;-84
2023/09/01 01:25:47;;;;;;;4.60;3.20;;;;;;;;;;4995394;28;20042;-84
2023/09/01 01:28:15;;;;;;;5.22;3.30;;;;;;;;;;4967137;28;20493;-84
2023/09/01 01:30:46;;;;;;;4.03;3.50;;;;;;;;;;4990865;28;20057;-83
2023/09/01 01:33:26;;;;;;;8.50;4.38;;;;;;;;;;4975021;28;20042;-83
2023/09/01 01:36:02;;;;;;;5.05;2.85;;;;;;;;;;4975596;28;20065;-83
2023/09/01 01:38:36;;;;;;;29.60;4.75;;;;;;;;;;4980968;28;20053;-83
2023/09/01 01:41:08;;;;;;;6.05;3.65;;;;;;;;;;4982532;28;20045;-84
2023/09/01 01:43:36;;;;;;;5.00;3.57;;;;;;;;;;4992546;28;20061;-83
2023/09/01 01:46:05;;;;;;;5.28;3.67;;;;;;;;;;4974829;28;20043;-83
2023/09/01 01:48:36;;;;;;;3.83;3.42;;;;;;;;;;4975105;28;20047;-83
2023/09/01 01:51:05;;;;;;;5.43;4.05;;;;;;;;;;4974510;28;20073;-83
2023/09/01 01:53:35;;;;;;;3.65;3.08;;;;;;;;;;4974802;28;20050;-83
2023/09/01 01:56:07;;;;;;;5.35;4.35;;;;;;;;;;4975065;28;20396;-83
2023/09/01 01:58:35;;;;;;;5.85;4.10;;;;;;;;;;4991190;28;20440;-83
2023/09/01 02:01:06;;;;;;;4.60;4.05;;;;;;;;;;4990668;28;20053;-83
2023/09/01 02:03:34;;;;;;;5.00;4.50;;;;;;;;;;4980311;28;20053;-83
2023/09/01 02:06:05;;;;;;;5.32;4.35;;;;;;;;;;5000910;28;20484;-83
2023/09/01 02:08:32;;;;;;;4.75;4.22;;;;;;;;;;4974845;28;20058;-83
2023/09/01 02:11:04;;;;;;;5.55;4.05;;;;;;;;;;4998679;28;20424;-83
2023/09/01 02:13:34;;;;;;;4.13;3.45;;;;;;;;;;4974458;28;20493;-83
2023/09/01 02:16:05;;;;;;;5.10;3.88;;;;;;;;;;4990933;28;20061;-83
2023/09/01 02:18:33;;;;;;;4.53;3.88;;;;;;;;;;4990906;28;20057;-83
2023/09/01 02:21:02;;;;;;;7.78;4.28;;;;;;;;;;4990435;28;20058;-83
2023/09/01 02:23:34;;;;;;;6.30;5.30;;;;;;;;;;4996294;28;20522;-83
2023/09/01 02:26:04;;;;;;;4.45;3.75;;;;;;;;;;4976907;28;20146;-83
2023/09/01 02:28:31;;;;;;;5.40;3.90;;;;;;;;;;4992045;28;20535;-84
2023/09/01 02:30:59;;;;;;;5.28;4.25;;;;;;;;;;4974847;28;20046;-84
2023/09/01 02:33:26;;;;;;;4.38;3.95;;;;;;;;;;4997714;28;20062;-83
2023/09/01 02:36:22;;;;;;;4.32;3.47;;;;;;;;;;4974505;28;20053;-83
2023/09/01 02:38:49;;;;;;;6.82;3.80;;;;;;;;;;4974752;28;20061;-83
2023/09/01 02:41:18;;;;;;;6.50;3.17;;;;;;;;;;4990330;28;20057;-83
2023/09/01 02:43:46;;;;;;;5.90;4.45;;;;;;;;;;4982418;28;20077;-83
2023/09/01 02:46:15;;;;;;;3.97;3.38;;;;;;;;;;4974930;28;20054;-83
2023/09/01 02:48:45;;;;;;;4.70;4.18;;;;;;;;;;4974739;28;20087;-83
2023/09/01 02:51:12;;;;;;;6.72;4.80;;;;;;;;;;4992046;28;20054;-83
2023/09/01 02:53:42;;;;;;;4.28;3.17;;;;;;;;;;4978759;28;20069;-83
2023/09/01 02:56:12;;;;;;;6.50;3.67;;;;;;;;;;4962437;28;20057;-83
2023/09/01 02:58:42;;;;;;;4.00;3.53;;;;;;;;;;4977892;28;20062;-83
2023/09/01 03:01:11;;;;;;;4.97;4.32;;;;;;;;;;4977616;28;20050;-83
2023/09/01 03:03:42;;;;;;;4.80;3.45;;;;;;;;;;4994466;28;20062;-83
2023/09/01 03:06:12;;;;;;;4.75;3.38;;;;;;;;;;4994225;28;20054;-83
2023/09/01 03:08:45;;;;;;;7.47;4.40;;;;;;;;;;4978661;28;20070;-83
2023/09/01 03:11:12;;;;;;;4.78;4.05;;;;;;;;;;4985503;28;20380;-82
2023/09/01 03:13:42;;;;;;;5.15;3.88;;;;;;;;;;4994333;28;20046;-82
2023/09/01 03:16:10;;;;;;;4.15;3.75;;;;;;;;;;4978029;28;20050;-82
2023/09/01 03:18:39;;;;;;;3.72;3.25;;;;;;;;;;5002233;28;20053;-82
2023/09/01 03:21:11;;;;;;;5.38;3.92;;;;;;;;;;4977512;28;20047;-83
2023/09/01 03:23:38;;;;;;;5.35;3.30;;;;;;;;;;4977619;28;20061;-83
2023/09/01 03:26:05;;;;;;;6.28;4.07;;;;;;;;;;4977579;28;20054;-82
2023/09/01 03:28:33;;;;;;;5.28;4.25;;;;;;;;;;4994054;28;20065;-82
2023/09/01 03:31:11;;;;;;;4.30;3.75;;;;;;;;;;4977833;28;20085;-83
2023/09/01 03:33:40;;;;;;;5.10;3.88;;;;;;;;;;4982959;28;20053;-83
2023/09/01 03:36:09;;;;;;;6.15;4.32;;;;;;;;;;4980001;28;20055;-83
2023/09/01 03:38:39;;;;;;;5.82;4.65;;;;;;;;;;4999260;28;20041;-83
2023/09/01 03:41:08;;;;;;;7.22;4.22;;;;;;;;;;4979457;28;20057;-83
2023/09/01 03:43:35;;;;;;;6.65;4.28;;;;;;;;;;4977445;28;20054;-83
2023/09/01 03:46:04;;;;;;;8.00;4.43;;;;;;;;;;4993542;28;20057;-83
2023/09/01 03:48:38;;;;;;;13.65;6.43;;;;;;;;;;4977646;28;20413;-83
2023/09/01 03:51:09;;;;;;;4.50;4.10;;;;;;;;;;4985130;28;20042;-83
2023/09/01 03:53:37;;;;;;;5.55;4.40;;;;;;;;;;4998364;28;20053;-83
2023/09/01 03:56:08;;;;;;;11.63;5.85;;;;;;;;;;4979984;28;20614;-82
2023/09/01 03:58:36;;;;;;;6.25;5.22;;;;;;;;;;4977410;28;20062;-83
2023/09/01 04:01:08;;;;;;;6.32;4.88;;;;;;;;;;4976998;28;20065;-82
2023/09/01 04:03:39;;;;;;;5.75;4.95;;;;;;;;;;4976728;28;20053;-83
2023/09/01 04:06:06;;;;;;;5.82;4.82;;;;;;;;;;4993477;28;20065;-82
2023/09/01 04:08:34;;;;;;;5.50;4.38;;;;;;;;;;4977510;28;20065;-82
2023/09/01 04:11:02;;;;;;;8.35;4.03;;;;;;;;;;4985344;28;20058;-82
2023/09/01 04:13:30;;;;;;;4.88;4.10;;;;;;;;;;4976938;28;20042;-83
2023/09/01 04:15:57;;;;;;;4.82;4.18;;;;;;;;;;5001505;28;20046;-83
2023/09/01 04:18:24;;;;;;;6.50;4.13;;;;;;;;;;4977303;28;20050;-83
2023/09/01 04:20:55;;;;;;;3.90;3.45;;;;;;;;;;4976657;28;20054;-83
2023/09/01 04:23:23;;;;;;;6.97;4.78;;;;;;;;;;5002546;28;20053;-83
2023/09/01 04:25:51;;;;;;;5.85;4.20;;;;;;;;;;4993038;28;20062;-83
2023/09/01 04:28:22;;;;;;;7.68;4.78;;;;;;;;;;5000941;28;20065;-83
2023/09/01 04:30:49;;;;;;;8.55;4.55;;;;;;;;;;4982221;28;20065;-83
2023/09/01 04:33:18;;;;;;;6.20;4.38;;;;;;;;;;4978677;28;20415;-82
2023/09/01 04:35:59;;;;;;;7.32;4.30;;;;;;;;;;4992491;28;20522;-82
2023/09/01 04:38:27;;;;;;;4.53;3.90;;;;;;;;;;4994106;28;20405;-82
2023/09/01 04:40:57;;;;;;;4.80;3.60;;;;;;;;;;4999663;28;20054;-82
2023/09/01 04:43:25;;;;;;;4.82;3.83;;;;;;;;;;4960192;28;20508;-82
2023/09/01 04:45:52;;;;;;;6.55;5.03;;;;;;;;;;4976192;28;20062;-82
2023/09/01 04:48:23;;;;;;;12.32;4.22;;;;;;;;;;4976357;28;20057;-82
2023/09/01 04:50:52;;;;;;;4.50;3.63;;;;;;;;;;4992127;28;20405;-82
2023/09/01 04:53:25;;;;;;;5.45;3.78;;;;;;;;;;4992184;28;20061;-83
2023/09/01 04:55:53;;;;;;;9.60;5.65;;;;;;;;;;4975862;28;20054;-83
2023/09/01 04:58:20;;;;;;;6.22;3.60;;;;;;;;;;4975767;28;20061;-84
2023/09/01 05:00:47;;;;;;;7.30;3.75;;;;;;;;;;4983555;28;20054;-83
2023/09/01 05:03:15;;;;;;;9.52;4.13;;;;;;;;;;4975759;28;20057;-83
2023/09/01 05:05:42;;;;;;;4.82;3.53;;;;;;;;;;4992318;28;20405;-83
2023/09/01 05:08:09;;;;;;;5.30;3.83;;;;;;;;;;4976033;28;20054;-83
2023/09/01 05:10:38;;;;;;;8.60;3.78;;;;;;;;;;4956513;28;20055;-83
2023/09/01 05:13:05;;;;;;;5.30;3.35;;;;;;;;;;4965038;28;20050;-84
2023/09/01 05:15:35;;;;;;;9.55;3.28;;;;;;;;;;4991923;28;20424;-84
2023/09/01 05:18:03;;;;;;;5.10;3.13;;;;;;;;;;4991898;28;20575;-83
2023/09/01 05:20:30;;;;;;;4.45;3.28;;;;;;;;;;4998727;28;20794;-83
2023/09/01 05:23:00;;;;;;;5.05;3.30;;;;;;;;;;4993409;28;20058;-84
2023/09/01 05:25:30;;;;;;;5.20;3.20;;;;;;;;;;4992123;28;20057;-84
2023/09/01 05:27:59;;;;;;;3.35;2.95;;;;;;;;;;4991765;28;20042;-83
2023/09/01 05:30:29;;;;;;;8.82;3.20;;;;;;;;;;4991606;28;20054;-84
2023/09/01 05:32:56;;;;;;;5.82;3.13;;;;;;;;;;4992993;28;20058;-84
2023/09/01 05:35:29;;;;;;;5.97;3.80;;;;;;;;;;4991643;28;20417;-84
2023/09/01 05:37:59;;;;;;;3.10;2.80;;;;;;;;;;4991960;28;20050;-84
2023/09/01 05:40:29;;;;;;;6.68;4.50;;;;;;;;;;4975157;28;20537;-84
2023/09/01 05:43:00;;;;;;;5.00;3.40;;;;;;;;;;4992693;28;20042;-83
2023/09/01 05:45:28;;;;;;;4.82;3.55;;;;;;;;;;4991291;28;20523;-84
2023/09/01 05:47:56;;;;;;;5.85;3.22;;;;;;;;;;4973049;28;20042;-83
2023/09/01 05:50:24;;;;;;;8.25;3.85;;;;;;;;;;4975129;28;20061;-84
2023/09/01 05:52:54;;;;;;;4.22;3.10;;;;;;;;;;4959586;28;20057;-83
2023/09/01 05:55:21;;;;;;;10.43;4.95;;;;;;;;;;4991057;28;20065;-83
2023/09/01 05:57:49;;;;;;;7.30;3.90;;;;;;;;;;4975226;28;20035;-84
2023/09/01 06:00:18;;;;;;;4.40;3.65;;;;;;;;;;4991047;28;20054;-83
2023/09/01 06:02:48;;;;;;;4.88;3.60;;;;;;;;;;4991303;28;20050;-83
2023/09/01 06:05:15;;;;;;;4.97;3.47;;;;;;;;;;4979803;28;20066;-84
2023/09/01 06:07:42;;;;;;;5.10;3.17;;;;;;;;;;4975661;28;20397;-84
2023/09/01 06:10:10;;;;;;;7.32;3.67;;;;;;;;;;4990892;28;20046;-83
2023/09/01 06:12:42;;;;;;;6.00;3.38;;;;;;;;;;4978599;28;20057;-83
2023/09/01 06:15:11;;;;;;;5.15;3.40;;;;;;;;;;4987478;28;20053;-83
2023/09/01 06:17:42;;;;;;;3.97;3.47;;;;;;;;;;5004767;28;20053;-83
2023/09/01 06:20:10;;;;;;;4.78;4.38;;;;;;;;;;4992074;28;20053;-83
2023/09/01 06:22:38;;;;;;;12.88;4.28;;;;;;;;;;4979943;28;20050;-83
2023/09/01 06:25:06;;;;;;;4.93;3.03;;;;;;;;;;4983178;28;20042;-84
2023/09/01 06:27:37;;;;;;;4.85;2.70;;;;;;;;;;5004095;28;20053;-83
2023/09/01 06:30:07;;;;;;;5.20;2.88;;;;;;;;;;5002730;28;20420;-83
2023/09/01 06:32:37;;;;;;;8.10;3.55;;;;;;;;;;5004329;28;20416;-84
2023/09/01 06:35:09;;;;;;;3.50;2.55;;;;;;;;;;4995926;28;20492;-84
2023/09/01 06:37:38;;;;;;;5.07;3.10;;;;;;;;;;4978618;28;20062;-84
2023/09/01 06:40:06;;;;;;;9.88;3.05;;;;;;;;;;4995933;28;20057;-84
2023/09/01 06:42:36;;;;;;;4.05;2.88;;;;;;;;;;4978310;28;20452;-83
2023/09/01 06:45:07;;;;;;;4.25;3.03;;;;;;;;;;4978500;28;20050;-84
2023/09/01 06:47:34;;;;;;;5.70;2.65;;;;;;;;;;4995678;28;20063;-84
2023/09/01 06:50:04;;;;;;;3.83;2.83;;;;;;;;;;4978638;28;20046;-83
2023/09/01 06:52:35;;;;;;;5.40;2.33;;;;;;;;;;4994712;28;20054;-84
2023/09/01 06:55:02;;;;;;;3.85;2.55;;;;;;;;;;4995813;28;20058;-84
2023/09/01 06:57:29;;;;;;;4.85;3.05;;;;;;;;;;4994575;28;20045;-83
2023/09/01 06:59:57;;;;;;;2.83;2.58;;;;;;;;;;4995455;28;20053;-84
2023/09/01 07:02:24;;;;;;;4.70;3.35;;;;;;;;;;4994524;28;20047;-84
2023/09/01 07:04:55;;;;;;;3.30;2.05;;;;;;;;;;4995960;28;20042;-84
2023/09/01 07:07:25;;;;;;;3.25;2.35;;;;;;;;;;4994382;28;20070;-83
2023/09/01 07:09:56;;;;;;;3.28;2.45;;;;;;;;;;4993986;28;20497;-83
2023/09/01 07:12:26;;;;;;;2.78;2.08;;;;;;;;;;4978082;28;20053;-84
2023/09/01 07:14:56;;;;;;;5.30;2.17;;;;;;;;;;4994171;28;20057;-84
2023/09/01 07:17:25;;;;;;;2.92;2.45;;;;;;;;;;4995301;28;20058;-84
2023/09/01 07:19:52;;;;;;;4.07;2.25;;;;;;;;;;4995344;28;20377;-83
2023/09/01 07:22:19;;;;;;;4.25;2.45;;;;;;;;;;4994142;28;20050;-84
2023/09/01 07:24:50;;;;;;;3.65;2.13;;;;;;;;;;4986229;28;20062;-83
2023/09/01 07:27:23;;;;;;;3.00;2.58;;;;;;;;;;4995247;28;20496;-84
2023/09/01 07:29:50;;;;;;;5.40;2.17;;;;;;;;;;4987638;28;20500;-84
2023/09/01 07:32:22;;;;;;;5.88;2.47;;;;;;;;;;4994486;28;20412;-84
2023/09/01 07:34:49;;;;;;;4.10;2.70;;;;;;;;;;4989389;28;20076;-84
2023/09/01 07:37:19;;;;;;;2.55;1.92;;;;;;;;;;4996983;28;20518;-84
2023/09/01 07:39:47;;;;;;;9.60;2.97;;;;;;;;;;5001901;28;20047;-84
2023/09/01 07:42:14;;;;;;;3.00;2.28;;;;;;;;;;4992439;28;20046;-84
2023/09/01 07:44:43;;;;;;;3.95;3.25;;;;;;;;;;4997360;28;20046;-83
2023/09/01 07:47:10;;;;;;;3.40;2.20;;;;;;;;;;4973150;28;20417;-84
2023/09/01 07:49:37;;;;;;;4.22;2.67;;;;;;;;;;4997638;28;20054;-84
2023/09/01 07:52:05;;;;;;;2.95;2.65;;;;;;;;;;5007792;28;20057;-84
2023/09/01 07:54:34;;;;;;;3.72;2.88;;;;;;;;;;5007870;28;20054;-84
2023/09/01 07:57:03;;;;;;;2.25;2.00;;;;;;;;;;5014132;28;20314;-84
2023/09/01 07:59:33;;;;;;;3.47;2.80;;;;;;;;;;5010952;28;20408;-84
2023/09/01 08:02:04;;;;;;;2.40;2.20;;;;;;;;;;4993935;28;20054;-84
2023/09/01 08:04:34;;;;;;;4.35;2.63;;;;;;;;;;5003166;28;20050;-84
2023/09/01 08:07:01;;;;;;;3.03;2.72;;;;;;;;;;5004408;28;20061;-84
2023/09/01 08:09:31;;;;;;;3.45;2.00;;;;;;;;;;4986678;28;20043;-84
2023/09/01 08:12:00;;;;;;;3.15;2.22;;;;;;;;;;5006898;28;20045;-84
2023/09/01 08:14:30;;;;;;;2.45;1.90;;;;;;;;;;4998279;28;20038;-84
2023/09/01 08:16:57;;;;;;;2.40;2.20;;;;;;;;;;5019712;28;20018;-84
2023/09/01 08:19:26;;;;;;;2.40;2.00;;;;;;;;;;5010531;28;20036;-84
2023/09/01 08:21:57;;;;;;;7.25;3.17;;;;;;;;;;4990911;28;20050;-84
2023/09/01 08:24:24;;;;;;;4.35;2.60;;;;;;;;;;4998335;28;20062;-84
2023/09/01 08:26:54;;;;;;;4.82;2.60;;;;;;;;;;4975951;28;20057;-84
2023/09/01 08:29:24;;;;;;;3.28;2.28;;;;;;;;;;4974435;28;20073;-84
2023/09/01 08:31:55;;;;;;;4.03;2.30;;;;;;;;;;4980362;28;20061;-84
2023/09/01 08:34:22;;;;;;;4.22;2.35;;;;;;;;;;4981566;28;20050;-84
2023/09/01 08:36:51;;;;;;;4.47;1.85;;;;;;;;;;4977223;28;20401;-84
2023/09/01 08:39:18;;;;;;;3.72;1.95;;;;;;;;;;4992885;28;20057;-84
2023/09/01 08:41:50;;;;;;;2.47;1.63;;;;;;;;;;4993048;28;20428;-84
2023/09/01 08:44:23;;;;;;;2.60;1.90;;;;;;;;;;4993385;28;20050;-84
2023/09/01 08:46:52;;;;;;;3.13;1.60;;;;;;;;;;4994853;28;20519;-84
2023/09/01 08:49:24;;;;;;;1.70;1.60;;;;;;;;;;4977372;28;20057;-83
2023/09/01 08:51:57;;;;;;;2.73;1.77;;;;;;;;;;4988942;28;20407;-83
2023/09/01 08:54:24;;;;;;;1.65;1.30;;;;;;;;;;4981122;28;20057;-84
2023/09/01 08:56:52;;;;;;;2.70;1.55;;;;;;;;;;4979437;28;20408;-84
2023/09/01 08:59:23;;;;;;;3.47;1.58;;;;;;;;;;5011352;28;20045;-84
2023/09/01 09:01:53;;;;;;;3.47;1.85;;;;;;;;;;4991908;28;20048;-83
2023/09/01 09:04:23;;;;;;;2.75;1.30;;;;;;;;;;4995627;28;20046;-83
2023/09/01 09:06:50;;;;;;;3.05;1.48;;;;;;;;;;4987125;28;20050;-84
2023/09/01 09:09:20;;;;;;;2.08;1.77;;;;;;;;;;4993658;28;20046;-83
2023/09/01 09:11:58;;;;;;;2.00;1.60;;;;;;;;;;4978151;28;20061;-83
2023/09/01 09:14:27;;;;;;;5.68;1.73;;;;;;;;;;4977982;28;20047;-83
2023/09/01 09:16:57;;;;;;;2.25;1.50;;;;;;;;;;4992382;28;20054;-83
2023/09/01 09:19:27;;;;;;;2.25;1.67;;;;;;;;;;4975748;28;20050;-83
2023/09/01 09:22:07;;;;;;;3.10;1.65;;;;;;;;;;4999801;28;20061;-84
2023/09/01 09:24:38;;;;;;;6.57;1.70;;;;;;;;;;4991748;28;20061;-84
2023/09/01 09:27:15;;;;;;;2.50;1.70;;;;;;;;;;4991847;28;20141;-84
2023/09/01 09:29:43;;;;;;;2.10;1.58;;;;;;;;;;4976771;28;20051;-84
2023/09/01 09:32:21;;;;;;;2.45;1.90;;;;;;;;;;4999732;28;20058;-84
2023/09/01 09:35:05;;;;;;;12.02;2.25;;;;;;;;;;4975156;28;20054;-84
2023/09/01 09:37:34;;;;;;;4.68;1.42;;;;;;;;;;4975888;28;20061;-84
2023/09/01 09:40:14;;;;;;;1.85;1.40;;;;;;;;;;4975599;28;20062;-84
2023/09/01 09:42:43;;;;;;;2.03;1.10;;;;;;;;;;4983297;28;20486;-84
2023/09/01 09:45:26;;;;;;;5.03;1.83;;;;;;;;;;4992956;28;20053;-84
2023/09/01 09:48:00;;;;;;;2.45;1.63;;;;;;;;;;4993448;28;20047;-84
2023/09/01 09:50:28;;;;;;;2.83;1.92;;;;;;;;;;4983262;28;20049;-84
2023/09/01 09:52:59;;;;;;;1.27;1.10;;;;;;;;;;4999415;28;20058;-84
2023/09/01 09:55:30;;;;;;;2.73;1.70;;;;;;;;;;4999489;28;20053;-84
2023/09/01 09:58:05;;;;;;;3.65;1.65;;;;;;;;;;5000766;28;20069;-84
2023/09/01 10:00:39;;;;;;;3.20;1.83;;;;;;;;;;4998357;28;20047;-84
2023/09/01 10:03:09;;;;;;;2.22;1.63;;;;;;;;;;4979614;28;20288;-85
2023/09/01 10:05:36;;;;;;;2.40;1.60;;;;;;;;;;4994963;28;20050;-84
2023/09/01 10:08:05;;;;;;;2.33;1.20;;;;;;;;;;4991649;28;20046;-84
2023/09/01 10:10:37;;;;;;;2.15;1.38;;;;;;;;;;4969924;28;20046;-84
2023/09/01 10:13:07;;;;;;;2.30;1.50;;;;;;;;;;4976075;28;20057;-84
2023/09/01 10:15:36;;;;;;;1.73;1.50;;;;;;;;;;4992658;28;20054;-84
2023/09/01 10:18:07;;;;;;;1.50;1.00;;;;;;;;;;4991257;28;20053;-84
2023/09/01 10:20:39;;;;;;;2.38;1.15;;;;;;;;;;4991228;28;20054;-84
2023/09/01 10:23:08;;;;;;;1.67;1.38;;;;;;;;;;4991151;28;20046;-84
2023/09/01 10:25:42;;;;;;;1.70;1.27;;;;;;;;;;4983515;28;20061;-84
2023/09/01 10:28:13;;;;;;;1.30;1.20;;;;;;;;;;4982875;28;20448;-84
2023/09/01 10:30:44;;;;;;;5.90;1.50;;;;;;;;;;4992461;28;20050;-84
2023/09/01 10:33:13;;;;;;;2.47;1.77;;;;;;;;;;4991674;28;20414;-84
2023/09/01 10:35:46;;;;;;;3.05;1.30;;;;;;;;;;4977049;28;20433;-85
2023/09/01 10:38:17;;;;;;;1.70;1.20;;;;;;;;;;4991789;28;20050;-84
2023/09/01 10:40:48;;;;;;;2.10;1.45;;;;;;;;;;4992025;28;20050;-84
2023/09/01 10:43:48;;;;;;;2.17;1.73;;;;;;;;;;4991597;28;20050;-84
2023/09/01 10:46:25;;;;;;;2.53;1.55;;;;;;;;;;4991396;28;20061;-84
2023/09/01 10:48:56;;;;;;;1.73;1.42;;;;;;;;;;4991215;28;20050;-84
2023/09/01 10:51:26;;;;;;;1.38;0.93;;;;;;;;;;4997488;28;20038;-84
2023/09/01 10:53:54;;;;;;;1.30;0.90;;;;;;;;;;4976273;28;20062;-84
2023/09/01 10:56:23;;;;;;;3.80;1.45;;;;;;;;;;4974519;28;20436;-84
2023/09/01 10:58:57;;;;;;;1.55;0.93;;;;;;;;;;4974553;28;20065;-84
2023/09/01 11:01:24;;;;;;;4.20;1.73;;;;;;;;;;4990413;28;20053;-84
2023/09/01 11:03:54;;;;;;;2.55;1.73;;;;;;;;;;4974288;28;20058;-84
2023/09/01 11:06:22;;;;;;;3.03;1.30;;;;;;;;;;4998753;28;20500;-84
2023/09/01 11:09:00;;;;;;;2.65;1.25;;;;;;;;;;4974506;28;20393;-84
2023/09/01 11:11:29;;;;;;;2.42;1.00;;;;;;;;;;4974510;28;20058;-84
2023/09/01 11:14:00;;;;;;;6.38;1.65;;;;;;;;;;4993992;28;20054;-84
2023/09/01 11:16:30;;;;;;;3.78;1.42;;;;;;;;;;4995328;28;20492;-84
2023/09/01 11:19:00;;;;;;;3.45;1.52;;;;;;;;;;4994551;28;20059;-84
2023/09/01 11:21:30;;;;;;;3.00;1.70;;;;;;;;;;4977440;28;20053;-84
2023/09/01 11:23:58;;;;;;;2.13;1.27;;;;;;;;;;4993740;28;20061;-84
2023/09/01 11:26:26;;;;;;;2.22;1.08;;;;;;;;;;4993869;28;20049;-84
2023/09/01 11:28:54;;;;;;;1.63;1.52;;;;;;;;;;4993839;28;20069;-84
2023/09/01 11:31:23;;;;;;;1.77;1.42;;;;;;;;;;4977230;28;20046;-84
2023/09/01 11:33:54;;;;;;;1.33;1.00;;;;;;;;;;4985406;28;20059;-84
2023/09/01 11:36:23;;;;;;;1.50;1.20;;;;;;;;;;4977584;28;20057;-84
2023/09/01 11:38:53;;;;;;;1.85;1.40;;;;;;;;;;4993736;28;20496;-84
2023/09/01 11:41:21;;;;;;;1.67;1.50;;;;;;;;;;4993304;28;20527;-84
2023/09/01 11:43:48;;;;;;;2.75;1.67;;;;;;;;;;4993459;28;20584;-84
2023/09/01 11:46:17;;;;;;;2.53;1.38;;;;;;;;;;4977070;28;20055;-84
2023/09/01 11:48:47;;;;;;;5.03;1.17;;;;;;;;;;4994926;28;20066;-84
2023/09/01 11:51:20;;;;;;;1.15;0.90;;;;;;;;;;4993993;28;20053;-84
2023/09/01 11:53:52;;;;;;;3.25;1.23;;;;;;;;;;4991703;28;20508;-84
2023/09/01 11:56:23;;;;;;;1.50;1.40;;;;;;;;;;4977337;28;20069;-84
2023/09/01 11:58:53;;;;;;;2.13;1.20;;;;;;;;;;4993159;28;20527;-84
2023/09/01 12:01:25;;;;;;;1.70;1.30;;;;;;;;;;4977156;28;20049;-84
2023/09/01 12:03:56;;;;;;;1.98;1.33;;;;;;;;;;4977085;28;20050;-84
2023/09/01 12:06:25;;;;;;;3.78;1.33;;;;;;;;;;4997815;28;20053;-84
2023/09/01 12:08:55;;;;;;;2.35;1.58;;;;;;;;;;4980029;28;20077;-84
2023/09/01 12:11:23;;;;;;;1.98;1.45;;;;;;;;;;4993989;28;20041;-84
2023/09/01 12:13:50;;;;;;;2.53;1.33;;;;;;;;;;4993132;28;20050;-84
2023/09/01 12:16:22;;;;;;;3.25;1.30;;;;;;;;;;4977094;28;20382;-84
2023/09/01 12:18:54;;;;;;;2.38;1.55;;;;;;;;;;4977240;28;20069;-84
2023/09/01 12:21:21;;;;;;;2.00;1.63;;;;;;;;;;4992509;28;20053;-84
2023/09/01 12:23:48;;;;;;;1.73;1.23;;;;;;;;;;4976071;28;20054;-84
2023/09/01 12:26:16;;;;;;;3.28;1.30;;;;;;;;;;4992808;28;20046;-84
2023/09/01 12:28:44;;;;;;;1.52;1.05;;;;;;;;;;4994050;28;20042;-84
2023/09/01 12:31:12;;;;;;;2.03;1.23;;;;;;;;;;4983257;28;20054;-84
2023/09/01 12:33:40;;;;;;;2.75;1.30;;;;;;;;;;4993427;28;20061;-84
2023/09/01 12:36:12;;;;;;;1.50;1.33;;;;;;;;;;4996294;28;20053;-84
2023/09/01 12:38:43;;;;;;;1.88;1.20;;;;;;;;;;4993665;28;20042;-84
2023/09/01 12:41:13;;;;;;;1.90;1.15;;;;;;;;;;4981109;28;20047;-84
2023/09/01 12:43:43;;;;;;;2.35;1.50;;;;;;;;;;4988609;28;20047;-83
2023/09/01 12:46:10;;;;;;;3.40;2.17;;;;;;;;;;4997044;28;20412;-84
2023/09/01 12:48:40;;;;;;;3.45;1.20;;;;;;;;;;4987173;28;20057;-84
2023/09/01 12:51:08;;;;;;;3.00;1.30;;;;;;;;;;4976384;28;20047;-84
2023/09/01 12:53:36;;;;;;;1.85;1.05;;;;;;;;;;4993491;28;20066;-84
2023/09/01 12:56:04;;;;;;;3.00;1.10;;;;;;;;;;4976034;28;20054;-84
2023/09/01 12:58:34;;;;;;;2.60;1.50;;;;;;;;;;4992136;28;20054;-84
2023/09/01 13:01:04;;;;;;;1.45;1.05;;;;;;;;;;4992130;28;20050;-84
2023/09/01 13:03:34;;;;;;;1.05;0.90;;;;;;;;;;4975904;28;20054;-84
2023/09/01 13:06:11;;;;;;;2.63;0.90;;;;;;;;;;4992209;28;20413;-84
2023/09/01 13:08:42;;;;;;;1.45;1.10;;;;;;;;;;4976253;28;20065;-84
2023/09/01 13:11:10;;;;;;;3.25;1.80;;;;;;;;;;4993103;28;20396;-84
2023/09/01 13:13:43;;;;;;;1.48;1.08;;;;;;;;;;5000882;28;20062;-83
2023/09/01 13:16:12;;;;;;;2.17;1.17;;;;;;;;;;5002021;28;20053;-84
2023/09/01 13:18:42;;;;;;;1.35;0.93;;;;;;;;;;4981628;28;20065;-84
2023/09/01 13:21:09;;;;;;;1.30;0.82;;;;;;;;;;4983656;28;20052;-84
2023/09/01 13:23:43;;;;;;;1.90;1.05;;;;;;;;;;4991596;28;20057;-84
2023/09/01 13:26:16;;;;;;;2.97;0.95;;;;;;;;;;4993062;28;20057;-84
2023/09/01 13:28:44;;;;;;;3.28;1.30;;;;;;;;;;4991924;28;20065;-84
2023/09/01 13:31:11;;;;;;;0.68;0.50;;;;;;;;;;4999397;28;20122;-84
2023/09/01 13:33:41;;;;;;;1.48;0.80;;;;;;;;;;4992650;28;20062;-84
2023/09/01 13:36:11;;;;;;;0.65;0.50;;;;;;;;;;4975766;28;20061;-84
2023/09/01 13:38:38;;;;;;;0.60;0.50;;;;;;;;;;4991669;28;20054;-84
2023/09/01 13:41:07;;;;;;;0.77;0.60;;;;;;;;;;4991381;28;20501;-84
2023/09/01 13:43:36;;;;;;;2.10;0.98;;;;;;;;;;4983289;28;20054;-84
2023/09/01 13:46:21;;;;;;;2.95;0.82;;;;;;;;;;4975235;28;20057;-83
2023/09/01 13:48:51;;;;;;;1.00;0.68;;;;;;;;;;4975180;28;20057;-83
2023/09/01 13:51:18;;;;;;;1.63;0.80;;;;;;;;;;4992274;28;20608;-84
2023/09/01 13:53:45;;;;;;;2.83;0.70;;;;;;;;;;4997444;28;20054;-83
2023/09/01 13:56:17;;;;;;;2.10;0.80;;;;;;;;;;4993787;28;20046;-84
2023/09/01 13:58:45;;;;;;;0.60;0.43;;;;;;;;;;4975382;28;20058;-84
2023/09/01 14:01:13;;;;;;;0.52;0.45;;;;;;;;;;4990924;28;20050;-84
2023/09/01 14:03:41;;;;;;;3.75;0.80;;;;;;;;;;4991340;28;20054;-84
2023/09/01 14:06:11;;;;;;;1.30;0.77;;;;;;;;;;4974922;28;20058;-84
2023/09/01 14:08:40;;;;;;;1.00;0.60;;;;;;;;;;4991076;28;20058;-84
2023/09/01 14:11:09;;;;;;;2.05;0.68;;;;;;;;;;4975063;28;20424;-84
2023/09/01 14:13:37;;;;;;;1.05;0.80;;;;;;;;;;4990945;28;20069;-84
2023/09/01 14:16:10;;;;;;;0.60;0.55;;;;;;;;;;4991495;28;20050;-84
2023/09/01 14:18:40;;;;;;;2.28;0.98;;;;;;;;;;4991264;28;20050;-84
2023/09/01 14:21:07;;;;;;;1.58;0.68;;;;;;;;;;4974927;28;20055;-84
2023/09/01 14:23:34;;;;;;;1.20;0.60;;;;;;;;;;4974829;28;20054;-84
2023/09/01 14:26:02;;;;;;;1.92;0.52;;;;;;;;;;4974627;28;20057;-84
2023/09/01 14:28:32;;;;;;;0.68;0.63;;;;;;;;;;4979792;28;20053;-84
2023/09/01 14:31:01;;;;;;;1.55;0.80;;;;;;;;;;4986845;28;20069;-84
2023/09/01 14:33:33;;;;;;;1.25;1.15;;;;;;;;;;4974808;28;20054;-84
2023/09/01 14:36:01;;;;;;;0.52;0.52;;;;;;;;;;4974819;28;20809;-84
2023/09/01 14:38:28;;;;;;;1.65;0.65;;;;;;;;;;5000582;28;20393;-84
2023/09/01 14:40:58;;;;;;;0.55;0.50;;;;;;;;;;4990597;28;20050;-84
2023/09/01 14:43:27;;;;;;;1.60;0.60;;;;;;;;;;4990806;28;20065;-84
2023/09/01 14:45:54;;;;;;;2.35;1.00;;;;;;;;;;4992139;28;20042;-84
2023/09/01 14:48:23;;;;;;;0.57;0.50;;;;;;;;;;4969812;28;20058;-84
2023/09/01 14:50:53;;;;;;;1.08;0.73;;;;;;;;;;4971951;28;20059;-84
2023/09/01 14:53:23;;;;;;;1.73;0.70;;;;;;;;;;4994743;28;20050;-84
2023/09/01 14:55:53;;;;;;;1.05;0.60;;;;;;;;;;4994585;28;20484;-84
2023/09/01 14:58:22;;;;;;;1.33;0.80;;;;;;;;;;4995486;28;20065;-84